createdAt,value
2022-08-12T00:02:05.101Z,1.15
2022-08-12T00:04:43.685Z,1.38
2022-08-12T00:07:30.901Z,1.20
2022-08-12T00:10:16.259Z,1.10
2022-08-12T00:13:01.061Z,1.43
2022-08-12T00:15:46.284Z,1.10
2022-08-12T00:18:31.140Z,1.25
2022-08-12T00:21:15.939Z,1.20
2022-08-12T00:24:01.659Z,0.98
2022-08-12T00:26:46.355Z,1.30
2022-08-12T00:29:31.644Z,1.33
2022-08-12T00:32:16.671Z,1.10
2022-08-12T00:35:20.928Z,1.20
2022-08-12T00:38:09.287Z,1.55
2022-08-12T00:40:56.547Z,1.60
2022-08-12T00:43:24.973Z,1.10
2022-08-12T00:46:10.832Z,1.33
2022-08-12T00:48:39.894Z,1.10
2022-08-12T00:51:07.591Z,0.98
2022-08-12T00:53:34.567Z,1.20
2022-08-12T00:56:01.847Z,1.30
2022-08-12T00:58:30.126Z,1.00
2022-08-12T01:01:05.879Z,1.00
2022-08-12T01:03:54.604Z,1.23
2022-08-12T01:06:40.491Z,1.20
2022-08-12T01:09:27.241Z,1.08
2022-08-12T01:11:54.527Z,1.10
2022-08-12T01:14:25.504Z,1.13
2022-08-12T01:16:52.833Z,1.30
2022-08-12T01:19:24.097Z,1.10
2022-08-12T01:22:22.498Z,1.40
2022-08-12T01:25:04.415Z,1.08
2022-08-12T01:27:34.400Z,2.05
2022-08-12T01:30:04.514Z,1.30
2022-08-12T01:32:37.640Z,1.00
2022-08-12T01:35:06.883Z,1.30
2022-08-12T01:37:46.343Z,1.10
2022-08-12T01:40:33.444Z,0.90
2022-08-12T01:43:10.553Z,1.20
2022-08-12T01:45:45.815Z,1.10
2022-08-12T01:48:28.286Z,1.13
2022-08-12T01:52:15.582Z,1.17
2022-08-12T01:54:05.681Z,1.20
2022-08-12T01:57:03.569Z,1.00
2022-08-12T01:59:47.312Z,1.10
2022-08-12T02:02:30.444Z,1.00
2022-08-12T02:05:34.280Z,1.00
2022-08-12T02:08:33.295Z,1.20
2022-08-12T02:11:18.312Z,1.00
2022-08-12T02:13:50.703Z,1.27
2022-08-12T02:16:39.454Z,1.13
2022-08-12T02:19:48.703Z,1.17
2022-08-12T02:22:31.922Z,1.27
2022-08-12T02:25:07.903Z,1.40
2022-08-12T02:27:39.456Z,2.33
2022-08-12T02:30:08.838Z,1.65
2022-08-12T02:32:41.514Z,1.10
2022-08-12T02:35:16.869Z,1.00
2022-08-12T02:37:44.162Z,1.10
2022-08-12T02:40:12.575Z,1.43
2022-08-12T02:42:49.940Z,1.05
2022-08-12T02:45:19.584Z,1.20
2022-08-12T02:47:58.093Z,1.50
2022-08-12T02:50:31.480Z,1.20
2022-08-12T02:52:59.440Z,0.87
2022-08-12T02:55:34.648Z,1.30
2022-08-12T02:58:06.964Z,1.20
2022-08-12T03:00:40.421Z,0.98
2022-08-12T03:03:09.751Z,1.20
2022-08-12T03:05:44.788Z,1.13
2022-08-12T03:08:17.489Z,1.20
2022-08-12T03:11:04.378Z,1.02
2022-08-12T03:13:36.459Z,1.10
2022-08-12T03:16:03.134Z,1.08
2022-08-12T03:18:32.623Z,1.00
2022-08-12T03:21:00.691Z,1.73
2022-08-12T03:23:29.747Z,1.38
2022-08-12T03:26:02.635Z,1.48
2022-08-12T03:28:50.489Z,1.48
2022-08-12T03:31:29.846Z,1.20
2022-08-12T03:34:03.115Z,1.35
2022-08-12T03:36:35.029Z,1.20
2022-08-12T03:39:17.253Z,1.40
2022-08-12T03:41:52.831Z,1.20
2022-08-12T03:44:50.661Z,1.27
2022-08-12T03:47:47.496Z,1.30
2022-08-12T03:50:32.923Z,1.30
2022-08-12T03:53:17.759Z,1.30
2022-08-12T03:56:02.675Z,1.33
2022-08-12T03:58:48.364Z,1.27
2022-08-12T04:01:14.841Z,1.35
2022-08-12T04:03:53.870Z,1.40
2022-08-12T04:06:35.124Z,1.30
2022-08-12T04:09:05.277Z,1.40
2022-08-12T04:12:01.070Z,1.13
2022-08-12T04:14:28.093Z,1.27
2022-08-12T04:16:56.075Z,1.20
2022-08-12T04:19:26.691Z,1.40
2022-08-12T04:22:01.331Z,1.50
2022-08-12T04:24:40.739Z,1.40
2022-08-12T04:27:10.432Z,1.25
2022-08-12T04:30:31.128Z,1.52
2022-08-12T04:32:27.397Z,1.27
2022-08-12T04:34:54.531Z,1.30
2022-08-12T04:37:20.979Z,1.33
2022-08-12T04:39:48.745Z,1.58
2022-08-12T04:42:16.020Z,1.40
2022-08-12T04:44:42.552Z,1.48
2022-08-12T04:47:14.960Z,1.50
2022-08-12T04:49:44.278Z,1.13
2022-08-12T04:52:10.840Z,1.75
2022-08-12T04:54:37.969Z,1.58
2022-08-12T04:57:05.831Z,1.52
2022-08-12T04:59:46.991Z,1.42
2022-08-12T05:02:20.448Z,1.57
2022-08-12T05:04:48.563Z,1.30
2022-08-12T05:07:14.982Z,1.65
2022-08-12T05:10:00.669Z,2.63
2022-08-12T05:12:37.119Z,1.90
2022-08-12T05:15:11.267Z,2.07
2022-08-12T05:17:46.404Z,3.22
2022-08-12T05:20:17.059Z,2.80
2022-08-12T05:22:46.865Z,3.08
2022-08-12T05:25:15.713Z,3.03
2022-08-12T05:27:58.137Z,2.50
2022-08-12T05:30:26.676Z,2.78
2022-08-12T05:32:55.456Z,2.95
2022-08-12T05:35:22.659Z,2.63
2022-08-12T05:38:13.847Z,2.72
2022-08-12T05:40:41.130Z,2.80
2022-08-12T05:43:09.764Z,2.75
2022-08-12T05:45:39.213Z,2.80
2022-08-12T05:48:08.003Z,2.90
2022-08-12T05:50:35.591Z,3.20
2022-08-12T05:53:02.221Z,2.90
2022-08-12T05:55:31.337Z,3.20
2022-08-12T05:57:58.764Z,3.45
2022-08-12T06:00:26.123Z,2.83
2022-08-12T06:03:01.841Z,2.83
2022-08-12T06:05:54.023Z,2.87
2022-08-12T06:08:23.633Z,3.00
2022-08-12T06:10:50.356Z,3.22
2022-08-12T06:13:28.355Z,2.97
2022-08-12T06:16:03.983Z,3.15
2022-08-12T06:18:31.290Z,3.00
2022-08-12T06:21:02.014Z,3.40
2022-08-12T06:23:30.139Z,3.83
2022-08-12T06:25:57.272Z,3.67
2022-08-12T06:28:23.687Z,4.18
2022-08-12T06:31:08.618Z,3.93
2022-08-12T06:33:59.761Z,4.15
2022-08-12T06:36:25.180Z,3.47
2022-08-12T06:38:57.071Z,3.83
2022-08-12T06:42:02.746Z,4.40
2022-08-12T06:44:28.751Z,3.67
2022-08-12T06:46:57.548Z,4.00
2022-08-12T06:49:25.026Z,3.42
2022-08-12T06:51:56.932Z,3.58
2022-08-12T06:54:30.904Z,3.30
2022-08-12T06:58:07.961Z,3.73
2022-08-12T06:59:47.785Z,4.10
2022-08-12T07:02:14.143Z,4.03
2022-08-12T07:04:40.692Z,4.22
2022-08-12T07:07:10.847Z,4.05
2022-08-12T07:10:05.057Z,4.20
2022-08-12T07:12:27.758Z,4.03
2022-08-12T07:14:55.270Z,3.53
2022-08-12T07:17:21.718Z,3.00
2022-08-12T07:19:49.917Z,2.95
2022-08-12T07:22:16.433Z,2.77
2022-08-12T07:24:43.067Z,3.05
2022-08-12T07:27:09.773Z,2.47
2022-08-12T07:30:02.787Z,3.42
2022-08-12T07:32:24.470Z,2.67
2022-08-12T07:34:54.281Z,2.33
2022-08-12T07:37:20.639Z,2.33
2022-08-12T07:39:51.062Z,2.28
2022-08-12T07:42:26.712Z,2.30
2022-08-12T07:44:53.179Z,2.38
2022-08-12T07:47:19.567Z,2.50
2022-08-12T07:50:04.147Z,3.13
2022-08-12T07:52:32.776Z,2.17
2022-08-12T07:55:00.118Z,2.05
2022-08-12T07:57:26.484Z,2.33
2022-08-12T07:59:55.856Z,2.40
2022-08-12T08:02:26.559Z,2.42
2022-08-12T08:04:56.763Z,2.40
2022-08-12T08:07:25.577Z,2.28
2022-08-12T08:09:59.260Z,2.03
2022-08-12T08:12:49.010Z,2.27
2022-08-12T08:15:16.306Z,2.20
2022-08-12T08:17:59.429Z,2.22
2022-08-12T08:20:30.127Z,2.72
2022-08-12T08:23:05.603Z,2.45
2022-08-12T08:25:36.574Z,2.20
2022-08-12T08:28:09.606Z,2.58
2022-08-12T08:30:38.651Z,2.28
2022-08-12T08:33:24.813Z,2.58
2022-08-12T08:35:55.474Z,2.00
2022-08-12T08:38:32.946Z,2.30
2022-08-12T08:42:17.369Z,2.63
2022-08-12T08:44:10.590Z,2.20
2022-08-12T08:46:37.886Z,2.17
2022-08-12T08:49:05.197Z,2.40
2022-08-12T08:51:31.583Z,2.20
2022-08-12T08:53:57.959Z,2.33
2022-08-12T08:56:24.514Z,2.60
2022-08-12T08:58:51.086Z,2.80
2022-08-12T09:01:22.370Z,2.78
2022-08-12T09:05:07.832Z,2.10
2022-08-12T09:06:37.972Z,2.25
2022-08-12T09:09:12.990Z,2.40
2022-08-12T09:12:10.697Z,2.13
2022-08-12T09:14:42.486Z,2.40
2022-08-12T09:17:13.787Z,2.57
2022-08-12T09:19:48.816Z,2.03
2022-08-12T09:22:18.528Z,2.60
2022-08-12T09:24:45.179Z,2.65
2022-08-12T09:27:16.721Z,2.50
2022-08-12T09:30:12.041Z,2.20
2022-08-12T09:33:04.947Z,2.00
2022-08-12T09:35:18.643Z,2.20
2022-08-12T09:37:58.883Z,2.15
2022-08-12T09:42:07.437Z,2.40
2022-08-12T09:43:34.561Z,2.20
2022-08-12T09:46:06.087Z,2.35
2022-08-12T09:48:56.327Z,1.92
2022-08-12T09:51:23.548Z,2.15
2022-08-12T09:54:09.047Z,2.25
2022-08-12T09:56:58.451Z,2.53
2022-08-12T10:00:17.599Z,2.72
2022-08-12T10:02:41.805Z,2.03
2022-08-12T10:04:59.406Z,2.47
2022-08-12T10:07:28.680Z,2.17
2022-08-12T10:10:06.484Z,2.40
2022-08-12T10:13:07.160Z,2.15
2022-08-12T10:16:01.483Z,2.08
2022-08-12T10:18:22.794Z,2.30
2022-08-12T10:20:52.709Z,2.38
2022-08-12T10:23:19.878Z,1.90
2022-08-12T10:26:36.857Z,2.08
2022-08-12T10:30:37.439Z,2.25
2022-08-12T10:32:43.975Z,2.17
2022-08-12T10:35:08.594Z,2.40
2022-08-12T10:38:38.690Z,2.10
2022-08-12T10:40:28.530Z,2.25
2022-08-12T10:43:17.197Z,2.13
2022-08-12T10:45:44.000Z,2.60
2022-08-12T10:48:21.284Z,2.08
2022-08-12T10:51:00.928Z,2.77
2022-08-12T10:53:45.944Z,2.25
2022-08-12T10:56:14.364Z,2.25
2022-08-12T10:58:40.795Z,2.40
2022-08-12T11:01:49.420Z,2.53
2022-08-12T11:04:20.742Z,2.30
2022-08-12T11:07:06.014Z,2.30
2022-08-12T11:09:56.571Z,2.50
2022-08-12T11:12:55.865Z,2.38
2022-08-12T11:15:20.806Z,2.25
2022-08-12T11:17:54.541Z,2.50
2022-08-12T11:20:24.306Z,2.60
2022-08-12T11:23:03.710Z,2.35
2022-08-12T11:25:58.005Z,2.97
2022-08-12T11:28:33.849Z,2.38
2022-08-12T11:31:02.552Z,2.97
2022-08-12T11:34:05.579Z,2.67
2022-08-12T11:36:15.654Z,2.80
2022-08-12T11:38:42.546Z,2.72
2022-08-12T11:41:09.285Z,2.55
2022-08-12T11:43:50.261Z,2.50
2022-08-12T11:46:22.093Z,2.30
2022-08-12T11:48:52.352Z,2.40
2022-08-12T11:51:20.607Z,2.55
2022-08-12T11:53:57.543Z,2.40
2022-08-12T11:56:28.294Z,2.20
2022-08-12T12:02:02.051Z,2.50
2022-08-12T12:04:31.710Z,2.53
2022-08-12T12:07:07.290Z,2.20
2022-08-12T12:09:51.948Z,2.27
2022-08-12T12:12:19.617Z,2.08
2022-08-12T12:14:54.864Z,2.50
2022-08-12T12:17:23.923Z,2.30
2022-08-12T12:19:50.739Z,2.25
2022-08-12T12:22:23.612Z,2.20
2022-08-12T12:24:58.112Z,2.80
2022-08-12T12:28:03.826Z,2.20
2022-08-12T12:30:19.393Z,2.30
2022-08-12T12:32:55.994Z,1.90
2022-08-12T12:36:18.182Z,1.97
2022-08-12T12:38:12.524Z,2.30
2022-08-12T12:40:41.642Z,2.00
2022-08-12T12:43:12.034Z,2.00
2022-08-12T12:45:44.564Z,2.30
2022-08-12T12:48:18.362Z,2.37
2022-08-12T12:50:51.183Z,1.95
2022-08-12T12:54:05.087Z,2.00
2022-08-12T12:56:13.381Z,1.85
2022-08-12T12:58:40.213Z,2.05
2022-08-12T13:01:26.644Z,2.60
2022-08-12T13:04:01.719Z,2.35
2022-08-12T13:06:31.846Z,2.13
2022-08-12T13:09:02.709Z,2.08
2022-08-12T13:11:41.693Z,2.40
2022-08-12T13:14:12.991Z,2.23
2022-08-12T13:16:56.452Z,2.35
2022-08-12T13:19:36.565Z,2.10
2022-08-12T13:22:19.288Z,2.25
2022-08-12T13:24:54.585Z,2.20
2022-08-12T13:27:22.356Z,2.30
2022-08-12T13:29:49.003Z,2.20
2022-08-12T13:32:30.719Z,2.45
2022-08-12T13:35:04.641Z,1.83
2022-08-12T13:37:54.793Z,2.22
2022-08-12T13:40:23.163Z,2.40
2022-08-12T13:42:57.532Z,2.15
2022-08-12T13:45:29.124Z,2.10
2022-08-12T13:48:13.619Z,2.15
2022-08-12T13:50:46.110Z,1.90
2022-08-12T13:53:24.670Z,2.17
2022-08-12T13:56:02.305Z,2.42
2022-08-12T13:58:30.929Z,1.90
2022-08-12T14:01:04.558Z,2.17
2022-08-12T14:03:51.128Z,1.98
2022-08-12T14:06:17.399Z,2.00
2022-08-12T14:08:44.154Z,2.00
2022-08-12T14:11:12.485Z,2.08
2022-08-12T14:14:03.613Z,2.10
2022-08-12T14:16:48.674Z,2.25
2022-08-12T14:19:21.925Z,1.93
2022-08-12T14:22:01.618Z,1.98
2022-08-12T14:24:34.987Z,2.17
2022-08-12T14:27:02.686Z,1.90
2022-08-12T14:29:59.073Z,1.80
2022-08-12T14:32:18.023Z,2.03
2022-08-12T14:34:47.056Z,4.07
2022-08-12T14:37:55.372Z,2.95
2022-08-12T14:40:00.438Z,2.03
2022-08-12T14:42:27.888Z,2.15
2022-08-12T14:45:01.191Z,2.20
2022-08-12T14:47:29.350Z,2.53
2022-08-12T14:50:37.715Z,1.60
2022-08-12T14:55:43.442Z,1.85
2022-08-12T14:58:25.272Z,1.73
2022-08-12T15:01:11.422Z,1.70
2022-08-12T15:03:52.141Z,1.88
2022-08-12T15:06:43.963Z,1.95
2022-08-12T15:09:11.845Z,1.92
2022-08-12T15:11:54.630Z,1.90
2022-08-12T15:14:24.900Z,1.70
2022-08-12T15:16:51.254Z,1.52
2022-08-12T15:20:11.508Z,1.70
2022-08-12T15:22:39.509Z,1.75
2022-08-12T15:24:50.632Z,1.80
2022-08-12T15:27:22.097Z,2.40
2022-08-12T15:29:52.180Z,1.80
2022-08-12T15:32:20.289Z,1.92
2022-08-12T15:34:58.811Z,2.15
2022-08-12T15:38:08.106Z,1.87
2022-08-12T15:40:14.963Z,2.30
2022-08-12T15:42:58.165Z,2.25
2022-08-12T15:45:32.136Z,2.13
2022-08-12T15:48:16.846Z,2.22
2022-08-12T15:50:46.572Z,1.90
2022-08-12T15:53:17.090Z,1.90
2022-08-12T15:55:49.187Z,1.73
2022-08-12T15:58:17.236Z,2.05
2022-08-12T16:00:43.733Z,1.55
2022-08-12T16:03:13.520Z,2.50
2022-08-12T16:06:11.527Z,1.60
2022-08-12T16:08:36.294Z,2.22
2022-08-12T16:11:14.958Z,1.90
2022-08-12T16:13:44.444Z,2.80
2022-08-12T16:16:22.384Z,2.07
2022-08-12T16:18:57.874Z,2.00
2022-08-12T16:21:52.530Z,1.98
2022-08-12T16:24:12.907Z,2.17
2022-08-12T16:26:40.901Z,1.90
2022-08-12T16:29:15.844Z,2.20
2022-08-12T16:31:43.859Z,2.10
2022-08-12T16:34:38.409Z,1.85
2022-08-12T16:37:04.603Z,2.20
2022-08-12T16:39:59.487Z,2.30
2022-08-12T16:42:22.571Z,2.00
2022-08-12T16:44:54.263Z,2.17
2022-08-12T16:47:23.569Z,1.60
2022-08-12T16:49:55.524Z,1.52
2022-08-12T16:52:22.251Z,2.10
2022-08-12T16:54:48.658Z,2.07
2022-08-12T16:57:15.272Z,2.13
2022-08-12T16:59:53.468Z,1.90
2022-08-12T17:02:33.365Z,2.20
2022-08-12T17:05:03.509Z,2.28
2022-08-12T17:07:36.507Z,2.17
2022-08-12T17:10:05.347Z,1.98
2022-08-12T17:12:31.734Z,2.05
2022-08-12T17:14:58.469Z,1.85
2022-08-12T17:17:48.017Z,2.40
2022-08-12T17:20:34.740Z,2.20
2022-08-12T17:23:01.514Z,2.10
2022-08-12T17:25:36.100Z,1.80
2022-08-12T17:28:03.447Z,1.80
2022-08-12T17:30:30.412Z,2.42
2022-08-12T17:33:02.140Z,2.03
2022-08-12T17:35:37.362Z,1.90
2022-08-12T17:38:13.679Z,1.80
2022-08-12T17:40:43.484Z,2.40
2022-08-12T17:43:56.544Z,2.90
2022-08-12T17:46:04.064Z,2.20
2022-08-12T17:48:34.866Z,1.80
2022-08-12T17:51:07.083Z,1.95
2022-08-12T17:54:05.902Z,2.10
2022-08-12T17:56:31.739Z,2.15
2022-08-12T17:59:00.127Z,1.70
2022-08-12T18:01:29.057Z,1.80
2022-08-12T18:04:21.365Z,1.95
2022-08-12T18:06:50.329Z,1.77
2022-08-12T18:09:17.806Z,1.90
2022-08-12T18:12:07.999Z,1.83
2022-08-12T18:14:37.363Z,1.90
2022-08-12T18:17:08.496Z,1.80
2022-08-12T18:20:05.082Z,1.80
2022-08-12T18:22:30.895Z,1.80
2022-08-12T18:26:12.658Z,1.80
2022-08-12T18:28:15.118Z,2.25
2022-08-12T18:30:53.460Z,1.85
2022-08-12T18:33:24.740Z,2.55
2022-08-12T18:35:55.616Z,1.63
2022-08-12T18:38:25.108Z,1.93
2022-08-12T18:41:22.084Z,1.88
2022-08-12T18:44:00.247Z,3.63
2022-08-12T18:46:55.369Z,2.20
2022-08-12T18:49:39.580Z,1.90
2022-08-12T18:52:08.243Z,1.97
2022-08-12T18:54:41.410Z,2.15
2022-08-12T18:57:45.999Z,1.67
2022-08-12T19:00:07.030Z,1.90
2022-08-12T19:02:39.691Z,1.92
2022-08-12T19:05:09.846Z,1.90
2022-08-12T19:07:50.087Z,1.70
2022-08-12T19:10:28.640Z,2.55
2022-08-12T19:13:23.483Z,2.10
2022-08-12T19:15:57.755Z,1.70
2022-08-12T19:18:29.422Z,2.17
2022-08-12T19:20:58.478Z,2.00
2022-08-12T19:23:25.320Z,1.90
2022-08-12T19:26:03.267Z,1.75
2022-08-12T19:28:34.867Z,1.90
2022-08-12T19:31:56.537Z,1.93
2022-08-12T19:34:56.401Z,1.73
2022-08-12T19:37:19.968Z,1.98
2022-08-12T19:40:09.895Z,2.25
2022-08-12T19:42:40.073Z,1.70
2022-08-12T19:45:13.878Z,1.80
2022-08-12T19:47:44.572Z,1.77
2022-08-12T19:50:11.915Z,1.70
2022-08-12T19:52:38.903Z,1.80
2022-08-12T19:55:11.579Z,1.92
2022-08-12T19:58:03.318Z,1.90
2022-08-12T20:00:34.782Z,2.15
2022-08-12T20:03:04.258Z,1.67
2022-08-12T20:06:06.529Z,1.90
2022-08-12T20:08:20.861Z,1.85
2022-08-12T20:12:11.777Z,1.63
2022-08-12T20:13:49.315Z,1.48
2022-08-12T20:16:50.719Z,1.70
2022-08-12T20:19:13.608Z,2.10
2022-08-12T20:21:43.373Z,1.70
2022-08-12T20:24:12.101Z,1.97
2022-08-12T20:26:41.851Z,1.60
2022-08-12T20:29:10.353Z,1.88
2022-08-12T20:31:37.565Z,1.45
2022-08-12T20:34:04.118Z,1.73
2022-08-12T20:36:41.770Z,1.73
2022-08-12T20:39:17.866Z,1.50
2022-08-12T20:41:59.825Z,2.20
2022-08-12T20:44:26.699Z,1.88
2022-08-12T20:47:06.489Z,1.85
2022-08-12T20:49:44.899Z,1.73
2022-08-12T20:52:13.738Z,1.67
2022-08-12T20:54:50.049Z,1.98
2022-08-12T20:57:22.053Z,1.90
2022-08-12T20:59:51.408Z,1.90
2022-08-12T21:02:24.292Z,1.90
2022-08-12T21:05:10.793Z,2.10
2022-08-12T21:07:47.777Z,1.48
2022-08-12T21:10:18.846Z,1.70
2022-08-12T21:12:47.879Z,1.77
2022-08-12T21:15:23.892Z,1.90
2022-08-12T21:18:11.798Z,1.65
2022-08-12T21:20:50.120Z,2.03
2022-08-12T21:23:18.873Z,1.63
2022-08-12T21:25:46.072Z,1.52
2022-08-12T21:28:14.203Z,2.00
2022-08-12T21:30:54.813Z,1.90
2022-08-12T21:33:30.904Z,1.50
2022-08-12T21:35:58.076Z,1.80
2022-08-12T21:38:26.328Z,1.90
2022-08-12T21:41:01.578Z,1.90
2022-08-12T21:43:38.855Z,1.90
2022-08-12T21:46:14.950Z,2.00
2022-08-12T21:49:01.206Z,1.90
2022-08-12T21:51:48.845Z,1.70
2022-08-12T21:54:21.651Z,2.10
2022-08-12T21:56:49.116Z,2.15
2022-08-12T21:59:17.277Z,1.90
2022-08-12T22:01:49.202Z,1.65
2022-08-12T22:04:35.123Z,1.92
2022-08-12T22:07:01.718Z,2.00
2022-08-12T22:09:30.171Z,1.70
2022-08-12T22:12:30.291Z,1.55
2022-08-12T22:15:00.100Z,1.50
2022-08-12T22:17:49.677Z,1.90
2022-08-12T22:20:21.819Z,1.80
2022-08-12T22:22:53.727Z,1.90
2022-08-12T22:25:24.110Z,1.90
2022-08-12T22:28:11.955Z,1.90
2022-08-12T22:30:56.611Z,1.58
2022-08-12T22:33:22.956Z,1.70
2022-08-12T22:35:59.503Z,1.90
2022-08-12T22:38:29.646Z,1.80
2022-08-12T22:41:00.835Z,1.70
2022-08-12T22:44:00.577Z,1.58
2022-08-12T22:46:53.503Z,1.70
2022-08-12T22:49:36.758Z,1.90
2022-08-12T22:52:18.660Z,1.65
2022-08-12T22:55:02.621Z,1.63
2022-08-12T22:57:53.409Z,1.75
2022-08-12T23:00:24.011Z,1.63
2022-08-12T23:02:51.659Z,1.80
2022-08-12T23:05:23.392Z,1.77
2022-08-12T23:08:13.698Z,1.73
2022-08-12T23:10:40.811Z,1.70
2022-08-12T23:13:43.383Z,1.60
2022-08-12T23:16:27.889Z,1.73
2022-08-12T23:18:59.822Z,1.35
2022-08-12T23:22:04.091Z,1.80
2022-08-12T23:24:18.271Z,1.77
2022-08-12T23:27:03.835Z,1.63
2022-08-12T23:29:43.438Z,1.90
2022-08-12T23:32:13.347Z,1.75
2022-08-12T23:35:02.513Z,1.83
2022-08-12T23:37:47.674Z,1.40
2022-08-12T23:40:19.627Z,1.53
2022-08-12T23:42:47.839Z,1.75
2022-08-12T23:45:20.304Z,1.48
2022-08-12T23:47:58.241Z,1.60
2022-08-12T23:50:33.818Z,1.90
2022-08-12T23:53:03.422Z,1.63
2022-08-12T23:55:40.711Z,1.75
2022-08-12T23:58:17.287Z,1.80
